createdAt,value
2017-08-21T00:00:01.830Z,14.50
2017-08-21T00:02:30.155Z,14.40
2017-08-21T00:04:58.504Z,14.40
2017-08-21T00:07:26.792Z,14.50
2017-08-21T00:09:55.121Z,14.50
2017-08-21T00:12:23.436Z,14.60
2017-08-21T00:14:51.734Z,14.60
2017-08-21T00:17:20.052Z,14.50
2017-08-21T00:19:48.425Z,14.50
2017-08-21T00:22:16.852Z,14.50
2017-08-21T00:24:45.152Z,14.60
2017-08-21T00:27:13.583Z,14.60
2017-08-21T00:29:41.938Z,14.60
2017-08-21T00:32:10.243Z,14.60
2017-08-21T00:34:38.596Z,14.70
2017-08-21T00:37:06.901Z,14.70
2017-08-21T00:39:35.238Z,14.70
2017-08-21T00:42:03.536Z,14.60
2017-08-21T00:44:31.833Z,14.50
2017-08-21T00:47:00.182Z,14.50
2017-08-21T00:49:28.499Z,14.50
2017-08-21T00:51:56.986Z,14.50
2017-08-21T00:54:26.408Z,14.60
2017-08-21T00:56:54.745Z,14.60
2017-08-21T00:59:23.044Z,14.60
2017-08-21T01:01:51.381Z,14.60
2017-08-21T01:04:20.490Z,14.60
2017-08-21T01:06:48.798Z,14.60
2017-08-21T01:09:17.103Z,14.70
2017-08-21T01:11:45.541Z,14.70
2017-08-21T01:14:13.882Z,14.70
2017-08-21T01:16:42.179Z,14.70
2017-08-21T01:19:10.521Z,14.70
2017-08-21T01:21:38.845Z,14.70
2017-08-21T01:24:07.163Z,14.70
2017-08-21T01:26:35.453Z,14.60
2017-08-21T01:29:03.793Z,14.40
2017-08-21T01:31:32.104Z,14.40
2017-08-21T01:34:00.397Z,14.40
2017-08-21T01:36:28.734Z,14.40
2017-08-21T01:38:57.081Z,14.40
2017-08-21T01:41:25.421Z,14.50
2017-08-21T01:43:53.813Z,14.50
2017-08-21T01:46:22.109Z,14.60
2017-08-21T01:48:50.400Z,14.60
2017-08-21T01:51:18.714Z,14.60
2017-08-21T01:53:47.020Z,14.60
2017-08-21T01:56:15.395Z,14.60
2017-08-21T01:58:43.712Z,14.50
2017-08-21T02:01:12.094Z,14.50
2017-08-21T02:03:40.469Z,14.40
2017-08-21T02:06:08.765Z,14.30
2017-08-21T02:08:37.080Z,14.30
2017-08-21T02:11:05.421Z,14.20
2017-08-21T02:13:33.709Z,14.20
2017-08-21T02:16:02.042Z,14.20
2017-08-21T02:18:30.387Z,14.10
2017-08-21T02:20:58.774Z,14.10
2017-08-21T02:23:27.073Z,14.10
2017-08-21T02:25:55.397Z,14.10
2017-08-21T02:28:23.725Z,14.10
2017-08-21T02:30:52.049Z,14.20
2017-08-21T02:33:20.377Z,14.20
2017-08-21T02:35:48.673Z,14.20
2017-08-21T02:41:54.861Z,14.10
2017-08-21T02:44:23.212Z,14.10
2017-08-21T02:46:51.564Z,14.00
2017-08-21T02:49:19.927Z,14.00
2017-08-21T02:51:48.260Z,13.90
2017-08-21T02:54:16.583Z,13.90
2017-08-21T02:56:44.950Z,13.90
2017-08-21T02:59:13.257Z,13.90
2017-08-21T03:01:41.556Z,13.90
2017-08-21T03:04:09.974Z,13.90
2017-08-21T03:06:38.269Z,13.90
2017-08-21T03:09:06.567Z,13.90
2017-08-21T03:11:34.901Z,13.90
2017-08-21T03:14:03.193Z,13.90
2017-08-21T03:16:31.529Z,13.90
2017-08-21T03:18:59.906Z,13.80
2017-08-21T03:21:28.209Z,13.80
2017-08-21T03:23:56.555Z,13.70
2017-08-21T03:26:24.889Z,13.70
2017-08-21T03:28:53.195Z,13.70
2017-08-21T03:31:21.541Z,13.70
2017-08-21T03:33:49.949Z,13.70
2017-08-21T03:36:18.259Z,13.60
2017-08-21T03:38:46.598Z,13.60
2017-08-21T03:41:14.900Z,13.50
2017-08-21T03:43:43.277Z,13.40
2017-08-21T03:46:11.667Z,13.30
2017-08-21T03:48:39.990Z,13.30
2017-08-21T03:51:08.393Z,13.40
2017-08-21T03:53:36.716Z,13.40
2017-08-21T03:56:05.060Z,13.50
2017-08-21T03:58:33.356Z,13.50
2017-08-21T04:01:01.645Z,13.60
2017-08-21T04:03:29.987Z,13.60
2017-08-21T04:05:58.285Z,13.60
2017-08-21T04:08:26.595Z,13.60
2017-08-21T04:10:54.940Z,13.60
2017-08-21T04:13:23.275Z,13.60
2017-08-21T04:15:51.574Z,13.60
2017-08-21T04:18:19.889Z,13.60
2017-08-21T04:20:48.205Z,13.60
2017-08-21T04:23:16.538Z,13.70
2017-08-21T04:25:44.866Z,13.70
2017-08-21T04:28:13.196Z,13.70
2017-08-21T04:30:41.518Z,13.70
2017-08-21T04:33:09.900Z,13.70
2017-08-21T04:35:41.729Z,13.70
2017-08-21T04:38:10.100Z,13.70
2017-08-21T04:40:38.400Z,13.70
2017-08-21T04:43:06.974Z,13.60
2017-08-21T04:45:35.282Z,13.60
2017-08-21T04:48:03.593Z,13.50
2017-08-21T04:50:31.915Z,13.50
2017-08-21T04:53:00.204Z,13.50
2017-08-21T04:55:28.546Z,13.60
2017-08-21T04:57:56.919Z,13.60
2017-08-21T05:00:25.923Z,13.70
2017-08-21T05:02:55.167Z,13.80
2017-08-21T05:05:23.792Z,13.80
2017-08-21T05:07:52.250Z,13.80
2017-08-21T05:10:20.585Z,13.80
2017-08-21T05:12:48.937Z,13.80
2017-08-21T05:15:17.245Z,13.80
2017-08-21T05:17:45.630Z,13.90
2017-08-21T05:20:14.025Z,13.90
2017-08-21T05:22:42.373Z,13.90
2017-08-21T05:25:10.755Z,13.80
2017-08-21T05:27:39.247Z,13.90
2017-08-21T05:30:07.589Z,14.00
2017-08-21T05:32:35.915Z,14.00
2017-08-21T05:35:04.900Z,14.10
2017-08-21T05:37:33.610Z,14.20
2017-08-21T05:40:02.237Z,14.30
2017-08-21T05:42:30.854Z,14.40
2017-08-21T05:44:59.340Z,14.60
2017-08-21T05:47:27.829Z,14.80
2017-08-21T05:49:56.331Z,15.10
2017-08-21T05:52:24.888Z,15.30
2017-08-21T05:54:53.890Z,15.50
2017-08-21T05:57:22.269Z,15.60
2017-08-21T05:59:50.702Z,16.00
2017-08-21T06:02:19.055Z,16.70
2017-08-21T06:04:47.507Z,17.00
2017-08-21T06:07:15.827Z,17.10
2017-08-21T06:09:44.250Z,17.30
2017-08-21T06:12:12.819Z,18.10
2017-08-21T06:14:42.419Z,18.60
2017-08-21T06:17:11.021Z,18.60
2017-08-21T06:19:39.401Z,18.30
2017-08-21T06:22:08.008Z,18.00
2017-08-21T06:24:36.620Z,17.80
2017-08-21T06:27:05.013Z,18.30
2017-08-21T06:29:33.483Z,19.30
2017-08-21T06:32:01.785Z,20.30
2017-08-21T06:34:30.110Z,21.20
2017-08-21T06:36:58.408Z,21.70
2017-08-21T06:39:26.757Z,21.40
2017-08-21T06:41:55.048Z,21.80
2017-08-21T06:44:23.341Z,22.50
2017-08-21T06:46:51.712Z,23.40
2017-08-21T06:49:20.037Z,24.00
2017-08-21T06:51:48.373Z,24.70
2017-08-21T06:54:16.690Z,25.50
2017-08-21T06:56:44.991Z,25.80
2017-08-21T06:59:13.323Z,26.20
2017-08-21T07:01:41.619Z,26.40
2017-08-21T07:04:09.950Z,26.40
2017-08-21T07:06:38.306Z,26.30
2017-08-21T07:09:06.774Z,25.90
2017-08-21T07:11:35.210Z,25.80
2017-08-21T07:14:03.508Z,25.70
2017-08-21T07:16:31.816Z,25.90
2017-08-21T07:19:00.173Z,26.10
2017-08-21T07:21:28.486Z,26.00
2017-08-21T07:23:56.794Z,25.80
2017-08-21T07:26:25.121Z,25.60
2017-08-21T07:28:53.450Z,25.90
2017-08-21T07:31:21.808Z,25.60
2017-08-21T07:33:50.226Z,24.70
2017-08-21T07:36:18.534Z,24.90
2017-08-21T07:38:46.868Z,25.30
2017-08-21T07:41:15.158Z,25.40
2017-08-21T07:43:43.478Z,25.70
2017-08-21T07:46:11.809Z,26.20
2017-08-21T07:48:40.109Z,26.90
2017-08-21T07:51:08.460Z,27.10
2017-08-21T07:53:36.764Z,27.00
2017-08-21T07:56:05.092Z,27.40
2017-08-21T07:58:33.398Z,27.50
2017-08-21T08:01:01.743Z,27.80
2017-08-21T08:03:30.061Z,28.00
2017-08-21T08:05:58.401Z,27.70
2017-08-21T08:08:26.773Z,27.30
2017-08-21T08:11:00.386Z,27.20
2017-08-21T08:13:28.929Z,27.10
2017-08-21T08:15:57.253Z,27.30
2017-08-21T08:18:25.558Z,27.60
2017-08-21T08:20:53.858Z,27.80
2017-08-21T08:23:22.186Z,27.80
2017-08-21T08:25:50.488Z,28.00
2017-08-21T08:28:18.818Z,28.40
2017-08-21T08:30:47.112Z,28.40
2017-08-21T08:33:15.454Z,28.50
2017-08-21T08:35:43.862Z,28.40
2017-08-21T08:38:12.184Z,28.40
2017-08-21T08:40:40.521Z,28.40
2017-08-21T08:43:08.913Z,28.40
2017-08-21T08:45:37.212Z,28.40
2017-08-21T08:48:05.530Z,28.50
2017-08-21T08:50:33.863Z,28.50
2017-08-21T08:53:02.208Z,28.60
2017-08-21T08:55:30.503Z,28.50
2017-08-21T08:57:58.793Z,28.40
2017-08-21T09:00:27.159Z,28.20
2017-08-21T09:02:55.454Z,28.10
2017-08-21T09:05:23.762Z,28.20
2017-08-21T09:07:52.106Z,28.10
2017-08-21T09:10:20.405Z,28.00
2017-08-21T09:12:48.705Z,27.70
2017-08-21T09:15:17.031Z,27.60
2017-08-21T09:17:45.338Z,27.40
2017-08-21T09:20:13.693Z,27.40
2017-08-21T09:22:42.000Z,27.50
2017-08-21T09:25:10.395Z,27.40
2017-08-21T09:27:38.756Z,27.40
2017-08-21T09:30:07.066Z,27.70
2017-08-21T09:32:35.441Z,27.50
2017-08-21T09:35:03.766Z,27.40
2017-08-21T09:37:32.090Z,27.60
2017-08-21T09:40:00.409Z,27.70
2017-08-21T09:42:28.724Z,27.60
2017-08-21T09:44:57.022Z,27.40
2017-08-21T09:47:25.393Z,27.30
2017-08-21T09:49:53.688Z,27.00
2017-08-21T09:52:22.022Z,26.60
2017-08-21T09:54:50.352Z,26.30
2017-08-21T09:57:18.652Z,26.10
2017-08-21T09:59:46.966Z,25.80
2017-08-21T10:02:15.344Z,25.30
2017-08-21T10:04:43.632Z,25.00
2017-08-21T10:07:11.985Z,24.80
2017-08-21T10:09:40.303Z,24.70
2017-08-21T10:12:08.741Z,24.50
2017-08-21T10:14:37.041Z,24.20
2017-08-21T10:17:05.372Z,24.00
2017-08-21T10:19:33.713Z,23.90
2017-08-21T10:22:02.017Z,24.00
2017-08-21T10:24:30.316Z,24.00
2017-08-21T10:26:58.669Z,23.90
2017-08-21T10:29:26.981Z,23.60
2017-08-21T10:31:55.280Z,23.90
2017-08-21T10:34:23.610Z,24.30
2017-08-21T10:36:51.941Z,24.70
2017-08-21T10:39:20.297Z,25.10
2017-08-21T10:41:48.595Z,25.20
2017-08-21T10:44:16.937Z,24.90
2017-08-21T10:46:45.232Z,24.70
2017-08-21T10:49:13.573Z,24.90
2017-08-21T10:51:41.882Z,25.00
2017-08-21T10:54:10.228Z,25.20
2017-08-21T10:56:38.585Z,25.40
2017-08-21T10:59:07.010Z,25.70
2017-08-21T11:01:35.313Z,25.70
2017-08-21T11:04:03.649Z,25.80
2017-08-21T11:06:31.978Z,26.00
2017-08-21T11:09:00.314Z,26.30
2017-08-21T11:11:28.688Z,26.50
2017-08-21T11:13:56.977Z,26.20
2017-08-21T11:16:25.309Z,25.90
2017-08-21T11:18:53.633Z,25.60
2017-08-21T11:21:21.936Z,25.40
2017-08-21T11:23:50.261Z,25.20
2017-08-21T11:26:18.564Z,25.10
2017-08-21T11:28:46.893Z,24.70
2017-08-21T11:31:15.186Z,24.20
2017-08-21T11:33:43.518Z,23.90
2017-08-21T11:36:11.822Z,23.70
2017-08-21T11:38:40.196Z,23.60
2017-08-21T11:41:08.565Z,23.40
2017-08-21T11:43:36.890Z,23.30
2017-08-21T11:46:05.248Z,23.40
2017-08-21T11:48:33.583Z,23.40
2017-08-21T11:51:01.975Z,23.30
2017-08-21T11:53:30.325Z,23.30
2017-08-21T11:55:58.621Z,23.20
2017-08-21T11:58:26.947Z,23.10
2017-08-21T12:00:55.264Z,23.20
2017-08-21T12:03:23.573Z,23.30
2017-08-21T12:05:51.916Z,23.60
2017-08-21T12:08:20.241Z,23.80
2017-08-21T12:10:48.542Z,23.90
2017-08-21T12:13:16.880Z,24.00
2017-08-21T12:15:45.186Z,24.10
2017-08-21T12:18:13.522Z,23.90
2017-08-21T12:20:41.953Z,23.90
2017-08-21T12:23:10.369Z,23.90
2017-08-21T12:25:38.676Z,23.80
2017-08-21T12:28:06.987Z,23.90
2017-08-21T12:30:36.099Z,24.00
2017-08-21T12:33:04.766Z,24.20
2017-08-21T12:35:33.119Z,24.20
2017-08-21T12:38:01.542Z,24.10
2017-08-21T12:40:29.894Z,23.80
2017-08-21T12:42:58.197Z,23.60
2017-08-21T12:45:26.500Z,23.50
2017-08-21T12:47:54.845Z,23.40
2017-08-21T12:50:23.181Z,23.20
2017-08-21T12:52:51.494Z,23.10
2017-08-21T12:55:20.591Z,23.20
2017-08-21T12:57:48.956Z,23.20
2017-08-21T13:00:17.295Z,23.30
2017-08-21T13:02:45.613Z,23.50
2017-08-21T13:05:13.909Z,23.70
2017-08-21T13:07:42.278Z,23.80
2017-08-21T13:10:10.660Z,23.90
2017-08-21T13:12:38.983Z,23.90
2017-08-21T13:15:07.336Z,23.90
2017-08-21T13:17:35.624Z,23.90
2017-08-21T13:20:03.948Z,24.10
2017-08-21T13:22:32.267Z,24.20
2017-08-21T13:25:00.612Z,24.30
2017-08-21T13:27:28.931Z,24.40
2017-08-21T13:29:57.287Z,24.40
2017-08-21T13:32:25.598Z,24.40
2017-08-21T13:34:53.889Z,24.30
2017-08-21T13:37:22.215Z,24.20
2017-08-21T13:39:50.540Z,24.20
2017-08-21T13:42:18.839Z,24.30
2017-08-21T13:44:47.246Z,24.20
2017-08-21T13:47:15.492Z,24.40
2017-08-21T13:49:43.812Z,24.30
2017-08-21T13:52:12.141Z,24.20
2017-08-21T13:54:40.437Z,24.10
2017-08-21T13:57:08.755Z,24.00
2017-08-21T13:59:37.085Z,23.90
2017-08-21T14:02:05.437Z,23.90
2017-08-21T14:04:33.757Z,23.90
2017-08-21T14:07:02.074Z,24.00
2017-08-21T14:09:30.418Z,24.00
2017-08-21T14:11:58.742Z,23.90
2017-08-21T14:14:27.075Z,23.80
2017-08-21T14:16:55.445Z,23.60
2017-08-21T14:19:23.773Z,23.60
2017-08-21T14:21:52.078Z,23.50
2017-08-21T14:24:20.376Z,23.50
2017-08-21T14:26:48.986Z,23.60
2017-08-21T14:29:17.308Z,23.50
2017-08-21T14:31:45.609Z,23.50
2017-08-21T14:34:13.935Z,23.30
2017-08-21T14:36:42.280Z,23.20
2017-08-21T14:39:11.000Z,23.10
2017-08-21T14:41:39.289Z,23.00
2017-08-21T14:44:07.636Z,23.10
2017-08-21T14:46:35.952Z,23.10
2017-08-21T14:49:04.272Z,23.00
2017-08-21T14:51:32.632Z,22.90
2017-08-21T14:54:00.933Z,23.10
2017-08-21T14:56:29.226Z,23.00
2017-08-21T14:58:57.548Z,23.20
2017-08-21T15:01:25.905Z,23.30
2017-08-21T15:03:54.224Z,23.20
2017-08-21T15:06:22.716Z,23.10
2017-08-21T15:08:51.058Z,23.00
2017-08-21T15:11:19.390Z,22.90
2017-08-21T15:13:47.696Z,22.80
2017-08-21T15:16:16.060Z,22.80
2017-08-21T15:18:44.400Z,22.80
2017-08-21T15:21:12.890Z,22.80
2017-08-21T15:23:41.225Z,22.80
2017-08-21T15:26:09.573Z,22.80
2017-08-21T15:28:37.866Z,22.90
2017-08-21T15:31:06.218Z,23.00
2017-08-21T15:33:34.548Z,23.00
2017-08-21T15:36:02.856Z,23.00
2017-08-21T15:38:31.185Z,23.00
2017-08-21T15:40:59.485Z,23.20
2017-08-21T15:43:27.804Z,23.20
2017-08-21T15:45:56.150Z,23.20
2017-08-21T15:48:24.450Z,23.30
2017-08-21T15:50:52.806Z,23.30
2017-08-21T15:53:21.126Z,23.20
2017-08-21T15:55:49.513Z,23.10
2017-08-21T15:58:17.808Z,23.00
2017-08-21T16:00:46.101Z,22.90
2017-08-21T16:03:14.490Z,22.90
2017-08-21T16:05:42.880Z,23.00
2017-08-21T16:08:11.177Z,23.00
2017-08-21T16:10:39.465Z,23.00
2017-08-21T16:13:07.937Z,23.00
2017-08-21T16:15:36.254Z,23.10
2017-08-21T16:18:04.565Z,23.10
2017-08-21T16:20:32.881Z,23.10
2017-08-21T16:23:01.286Z,23.00
2017-08-21T16:25:29.577Z,22.90
2017-08-21T16:27:57.954Z,22.90
2017-08-21T16:30:26.327Z,22.80
2017-08-21T16:32:54.665Z,22.90
2017-08-21T16:35:22.977Z,22.90
2017-08-21T16:37:51.345Z,22.90
2017-08-21T16:40:19.641Z,22.90
2017-08-21T16:42:47.962Z,22.80
2017-08-21T16:45:16.285Z,22.80
2017-08-21T16:47:44.587Z,22.80
2017-08-21T16:50:12.926Z,22.60
2017-08-21T16:52:41.231Z,22.50
2017-08-21T16:55:09.518Z,22.40
2017-08-21T16:57:37.869Z,22.40
2017-08-21T17:00:06.198Z,22.40
2017-08-21T17:02:34.531Z,22.30
2017-08-21T17:05:02.912Z,22.30
2017-08-21T17:07:31.199Z,22.20
2017-08-21T17:09:59.497Z,22.20
2017-08-21T17:12:27.829Z,22.10
2017-08-21T17:14:56.134Z,22.00
2017-08-21T17:17:24.432Z,21.90
2017-08-21T17:19:52.751Z,22.00
2017-08-21T17:22:21.116Z,21.90
2017-08-21T17:24:49.605Z,21.80
2017-08-21T17:27:17.913Z,21.70
2017-08-21T17:29:46.253Z,21.60
2017-08-21T17:32:14.541Z,21.50
2017-08-21T17:34:42.896Z,21.50
2017-08-21T17:37:11.213Z,21.40
2017-08-21T17:39:39.541Z,21.40
2017-08-21T17:42:07.888Z,21.30
2017-08-21T17:44:36.245Z,21.20
2017-08-21T17:47:04.549Z,21.20
2017-08-21T17:49:32.871Z,21.10
2017-08-21T17:52:01.191Z,21.00
2017-08-21T17:54:29.534Z,20.90
2017-08-21T17:56:57.845Z,20.90
2017-08-21T17:59:26.138Z,20.80
2017-08-21T18:01:54.497Z,20.70
2017-08-21T18:04:22.834Z,20.60
2017-08-21T18:06:51.242Z,20.50
2017-08-21T18:09:19.557Z,20.50
2017-08-21T18:11:47.853Z,20.50
2017-08-21T18:14:16.174Z,20.40
2017-08-21T18:16:44.473Z,20.40
2017-08-21T18:19:12.861Z,20.30
2017-08-21T18:21:41.210Z,20.30
2017-08-21T18:24:09.506Z,20.30
2017-08-21T18:26:37.840Z,20.30
2017-08-21T18:29:06.174Z,20.20
2017-08-21T18:31:34.468Z,20.10
2017-08-21T18:34:02.836Z,20.10
2017-08-21T18:36:31.149Z,20.10
2017-08-21T18:38:59.445Z,20.10
2017-08-21T18:41:27.762Z,20.00
2017-08-21T18:43:56.093Z,19.90
2017-08-21T18:46:24.499Z,19.90
2017-08-21T18:48:52.795Z,19.80
2017-08-21T18:51:21.094Z,19.80
2017-08-21T18:53:49.446Z,19.70
2017-08-21T18:56:17.738Z,19.60
2017-08-21T18:58:46.032Z,19.50
2017-08-21T19:01:15.162Z,19.40
2017-08-21T19:03:43.561Z,19.40
2017-08-21T19:06:11.865Z,19.40
2017-08-21T19:08:40.199Z,19.30
2017-08-21T19:11:08.543Z,19.20
2017-08-21T19:13:36.836Z,19.00
2017-08-21T19:16:06.395Z,19.00
2017-08-21T19:18:34.710Z,19.00
2017-08-21T19:21:02.993Z,18.90
2017-08-21T19:23:31.338Z,18.90
2017-08-21T19:25:59.639Z,18.80
2017-08-21T19:28:27.995Z,18.70
2017-08-21T19:30:56.330Z,18.70
2017-08-21T19:33:24.644Z,18.60
2017-08-21T19:35:52.973Z,18.40
2017-08-21T19:38:21.311Z,18.40
2017-08-21T19:40:49.661Z,18.40
2017-08-21T19:43:17.966Z,18.40
2017-08-21T19:45:46.290Z,18.30
2017-08-21T19:48:14.581Z,18.30
2017-08-21T19:50:42.896Z,18.20
2017-08-21T19:53:11.257Z,18.20
2017-08-21T19:55:39.564Z,18.10
2017-08-21T19:58:08.361Z,18.10
2017-08-21T20:00:36.696Z,18.10
2017-08-21T20:03:05.187Z,18.00
2017-08-21T20:05:33.760Z,18.00
2017-08-21T20:08:02.066Z,17.90
2017-08-21T20:10:30.404Z,17.80
2017-08-21T20:12:58.705Z,17.70
2017-08-21T20:15:27.007Z,17.60
2017-08-21T20:17:55.351Z,17.50
2017-08-21T20:20:23.648Z,17.50
2017-08-21T20:22:51.946Z,17.50
2017-08-21T20:25:20.287Z,17.40
2017-08-21T20:27:48.596Z,17.30
2017-08-21T20:30:16.922Z,17.30
2017-08-21T20:32:45.255Z,17.40
2017-08-21T20:35:13.588Z,17.40
2017-08-21T20:37:41.884Z,17.30
2017-08-21T20:40:10.214Z,17.30
2017-08-21T20:42:38.509Z,17.30
2017-08-21T20:45:06.825Z,17.20
2017-08-21T20:47:35.158Z,17.10
2017-08-21T20:50:03.453Z,17.00
2017-08-21T20:52:31.767Z,16.90
2017-08-21T20:55:00.113Z,16.80
2017-08-21T20:57:28.488Z,16.80
2017-08-21T20:59:56.817Z,16.80
2017-08-21T21:02:25.113Z,16.90
2017-08-21T21:04:53.449Z,16.90
2017-08-21T21:07:21.789Z,16.90
2017-08-21T21:09:50.111Z,16.90
2017-08-21T21:12:18.446Z,16.90
2017-08-21T21:14:46.789Z,16.90
2017-08-21T21:17:15.265Z,16.90
2017-08-21T21:19:43.624Z,17.00
2017-08-21T21:22:11.929Z,17.00
2017-08-21T21:24:40.342Z,17.00
2017-08-21T21:27:08.629Z,17.00
2017-08-21T21:29:37.056Z,16.90
2017-08-21T21:32:05.383Z,16.80
2017-08-21T21:34:33.710Z,16.80
2017-08-21T21:37:02.061Z,16.70
2017-08-21T21:39:30.628Z,16.70
2017-08-21T21:41:59.121Z,16.60
2017-08-21T21:44:27.409Z,16.50
2017-08-21T21:46:55.729Z,16.40
2017-08-21T21:49:24.049Z,16.40
2017-08-21T21:51:52.368Z,16.40
2017-08-21T21:54:20.662Z,16.50
2017-08-21T21:56:49.030Z,16.50
2017-08-21T21:59:17.324Z,16.60
2017-08-21T22:01:45.604Z,16.60
2017-08-21T22:04:13.947Z,16.60
2017-08-21T22:06:42.256Z,16.60
2017-08-21T22:09:10.650Z,16.60
2017-08-21T22:11:38.962Z,16.60
2017-08-21T22:14:07.265Z,16.60
2017-08-21T22:16:35.620Z,16.60
2017-08-21T22:19:03.932Z,16.60
2017-08-21T22:21:32.294Z,16.60
2017-08-21T22:24:00.669Z,16.60
2017-08-21T22:26:28.967Z,16.60
2017-08-21T22:28:57.350Z,16.70
2017-08-21T22:31:25.676Z,16.70
2017-08-21T22:33:54.011Z,16.60
2017-08-21T22:36:22.309Z,16.60
2017-08-21T22:38:50.613Z,16.60
2017-08-21T22:41:18.971Z,16.60
2017-08-21T22:43:47.263Z,16.60
2017-08-21T22:46:15.588Z,16.60
2017-08-21T22:48:43.958Z,16.60
2017-08-21T22:51:12.269Z,16.60
2017-08-21T22:53:40.594Z,16.50
2017-08-21T22:56:08.928Z,16.50
2017-08-21T22:58:37.933Z,16.50
2017-08-21T23:01:29.791Z,16.50
2017-08-21T23:03:58.085Z,16.50
2017-08-21T23:06:26.378Z,16.40
2017-08-21T23:08:54.717Z,16.40
2017-08-21T23:11:23.052Z,16.40
2017-08-21T23:13:51.341Z,16.40
2017-08-21T23:16:19.653Z,16.40
2017-08-21T23:18:48.062Z,16.40
2017-08-21T23:21:16.379Z,16.50
2017-08-21T23:23:44.680Z,16.50
2017-08-21T23:26:13.007Z,16.40
2017-08-21T23:28:41.334Z,16.40
2017-08-21T23:31:09.629Z,16.40
2017-08-21T23:33:38.570Z,16.40
2017-08-21T23:36:06.868Z,16.30
2017-08-21T23:38:35.243Z,16.20
2017-08-21T23:41:03.536Z,16.00
2017-08-21T23:43:31.916Z,16.00
2017-08-21T23:46:00.217Z,16.00
2017-08-21T23:48:28.633Z,16.00
2017-08-21T23:50:56.929Z,16.10
2017-08-21T23:53:25.221Z,16.10
2017-08-21T23:55:53.550Z,16.20
2017-08-21T23:58:21.858Z,16.20
